createdAt,value
2023-02-11T00:00:36.317Z,17.17
2023-02-11T00:03:03.613Z,18.00
2023-02-11T00:05:30.907Z,19.60
2023-02-11T00:07:58.242Z,19.60
2023-02-11T00:10:25.457Z,16.75
2023-02-11T00:12:52.712Z,15.98
2023-02-11T00:15:21.212Z,11.30
2023-02-11T00:17:48.467Z,11.73
2023-02-11T00:20:15.928Z,19.17
2023-02-11T00:22:43.708Z,20.92
2023-02-11T00:25:10.922Z,17.33
2023-02-11T00:27:38.544Z,16.23
2023-02-11T00:30:06.003Z,18.67
2023-02-11T00:32:33.359Z,13.27
2023-02-11T00:35:00.668Z,14.82
2023-02-11T00:37:28.075Z,21.58
2023-02-11T00:39:55.333Z,13.48
2023-02-11T00:42:22.570Z,12.48
2023-02-11T00:44:49.847Z,14.60
2023-02-11T00:47:17.515Z,15.10
2023-02-11T00:49:44.821Z,19.13
2023-02-11T00:52:12.095Z,13.20
2023-02-11T00:54:39.336Z,15.80
2023-02-11T00:57:07.495Z,12.85
2023-02-11T00:59:34.728Z,12.68
2023-02-11T01:02:02.015Z,17.75
2023-02-11T01:04:29.260Z,15.98
2023-02-11T01:06:56.537Z,17.27
2023-02-11T01:11:53.126Z,17.08
2023-02-11T01:14:20.407Z,11.93
2023-02-11T01:16:50.439Z,15.13
2023-02-11T01:19:17.758Z,16.35
2023-02-11T01:21:46.562Z,12.95
2023-02-11T01:24:13.770Z,17.05
2023-02-11T01:26:41.029Z,12.40
2023-02-11T01:29:09.407Z,12.35
2023-02-11T01:31:37.076Z,14.20
2023-02-11T01:34:04.371Z,15.73
2023-02-11T01:36:31.645Z,14.48
2023-02-11T01:39:00.924Z,13.35
2023-02-11T01:41:28.223Z,14.48
2023-02-11T01:43:57.993Z,16.25
2023-02-11T01:46:36.024Z,15.75
2023-02-11T01:49:06.777Z,17.83
2023-02-11T01:51:37.412Z,14.75
2023-02-11T01:54:24.973Z,15.95
2023-02-11T01:57:12.558Z,16.15
2023-02-11T02:00:00.060Z,13.35
2023-02-11T02:02:34.351Z,18.10
2023-02-11T02:05:10.752Z,13.85
2023-02-11T02:07:43.493Z,15.60
2023-02-11T02:10:15.010Z,14.38
2023-02-11T02:12:42.269Z,11.90
2023-02-11T02:15:29.974Z,14.60
2023-02-11T02:18:00.147Z,12.85
2023-02-11T02:20:27.317Z,15.52
2023-02-11T02:23:13.182Z,11.85
2023-02-11T02:25:51.369Z,12.68
2023-02-11T02:28:37.702Z,12.48
2023-02-11T02:31:17.325Z,12.07
2023-02-11T02:33:53.852Z,10.77
2023-02-11T02:36:39.907Z,12.98
2023-02-11T02:39:25.848Z,14.60
2023-02-11T02:41:54.135Z,14.68
2023-02-11T02:44:22.062Z,14.98
2023-02-11T02:46:49.354Z,14.90
2023-02-11T02:49:17.675Z,15.73
2023-02-11T02:51:53.953Z,16.65
2023-02-11T02:54:37.161Z,13.07
2023-02-11T02:57:25.342Z,16.25
2023-02-11T02:59:52.566Z,12.88
2023-02-11T03:02:32.183Z,16.35
2023-02-11T03:05:09.136Z,15.43
2023-02-11T03:07:45.865Z,12.30
2023-02-11T03:10:16.518Z,13.32
2023-02-11T03:12:45.143Z,14.07
2023-02-11T03:15:13.228Z,14.30
2023-02-11T03:17:43.318Z,10.75
2023-02-11T03:20:12.008Z,14.07
2023-02-11T03:22:45.741Z,13.32
2023-02-11T03:25:13.114Z,14.10
2023-02-11T03:27:44.407Z,14.32
2023-02-11T03:30:22.022Z,14.68
2023-02-11T03:32:54.407Z,12.93
2023-02-11T03:35:48.332Z,13.65
2023-02-11T03:38:19.068Z,14.82
2023-02-11T03:40:46.394Z,16.42
2023-02-11T03:43:23.058Z,15.00
2023-02-11T03:45:51.622Z,15.50
2023-02-11T03:48:21.152Z,17.85
2023-02-11T03:50:49.165Z,17.98
2023-02-11T03:53:16.647Z,14.27
2023-02-11T03:55:44.608Z,18.52
2023-02-11T03:58:12.161Z,15.80
2023-02-11T04:00:41.119Z,17.27
2023-02-11T04:03:08.960Z,21.80
2023-02-11T04:05:36.269Z,17.80
2023-02-11T04:08:03.840Z,19.88
2023-02-11T04:10:31.268Z,18.25
2023-02-11T04:12:58.598Z,13.35
2023-02-11T04:15:26.006Z,15.68
2023-02-11T04:17:53.254Z,23.25
2023-02-11T04:20:20.546Z,17.67
2023-02-11T04:22:47.790Z,18.17
2023-02-11T04:25:15.046Z,22.20
2023-02-11T04:27:42.266Z,20.52
2023-02-11T04:30:09.842Z,16.85
2023-02-11T04:32:37.046Z,21.25
2023-02-11T04:35:04.410Z,19.13
2023-02-11T04:37:31.649Z,21.58
2023-02-11T04:39:58.926Z,20.15
2023-02-11T04:42:26.248Z,23.50
2023-02-11T04:44:53.605Z,17.75
2023-02-11T04:47:20.814Z,18.48
2023-02-11T04:49:48.088Z,25.30
2023-02-11T04:52:15.331Z,16.08
2023-02-11T04:54:42.583Z,23.63
2023-02-11T04:57:09.925Z,26.50
2023-02-11T04:59:37.254Z,20.50
2023-02-11T05:02:04.596Z,22.27
2023-02-11T05:04:31.940Z,21.75
2023-02-11T05:06:59.217Z,25.88
2023-02-11T05:09:26.456Z,22.40
2023-02-11T05:11:53.732Z,22.25
2023-02-11T05:14:21.029Z,17.92
2023-02-11T05:16:48.368Z,22.33
2023-02-11T05:19:15.674Z,24.25
2023-02-11T05:21:56.665Z,19.85
2023-02-11T05:24:27.719Z,21.17
2023-02-11T05:26:54.974Z,19.75
2023-02-11T05:29:22.599Z,22.38
2023-02-11T05:31:49.899Z,22.95
2023-02-11T05:34:17.165Z,23.20
2023-02-11T05:36:44.502Z,24.23
2023-02-11T05:39:11.842Z,18.23
2023-02-11T05:41:39.095Z,26.67
2023-02-11T05:44:06.326Z,21.10
2023-02-11T05:46:33.636Z,20.13
2023-02-11T05:49:00.870Z,22.67
2023-02-11T05:51:28.123Z,25.75
2023-02-11T05:53:55.406Z,23.08
2023-02-11T05:56:22.672Z,30.05
2023-02-11T05:58:49.885Z,31.45
2023-02-11T06:01:17.127Z,26.08
2023-02-11T06:03:44.473Z,28.58
2023-02-11T06:06:12.730Z,24.73
2023-02-11T06:08:40.311Z,21.75
2023-02-11T06:11:07.583Z,27.88
2023-02-11T06:13:34.892Z,27.65
2023-02-11T06:16:03.010Z,27.45
2023-02-11T06:18:30.566Z,27.98
2023-02-11T06:20:57.817Z,28.02
2023-02-11T06:23:25.062Z,21.58
2023-02-11T06:25:53.304Z,28.40
2023-02-11T06:28:20.862Z,28.52
2023-02-11T06:30:48.287Z,22.95
2023-02-11T06:33:16.226Z,26.70
2023-02-11T06:35:43.473Z,30.65
2023-02-11T06:38:10.781Z,28.90
2023-02-11T06:40:38.457Z,23.65
2023-02-11T06:43:05.724Z,29.02
2023-02-11T06:45:32.970Z,30.52
2023-02-11T06:48:00.194Z,26.92
2023-02-11T06:50:27.407Z,27.15
2023-02-11T06:52:54.638Z,29.55
2023-02-11T06:55:21.933Z,28.42
2023-02-11T06:57:49.191Z,26.48
2023-02-11T07:00:16.741Z,28.88
2023-02-11T07:02:44.088Z,27.80
2023-02-11T07:05:11.576Z,25.73
2023-02-11T07:07:38.835Z,27.98
2023-02-11T07:10:06.587Z,28.42
2023-02-11T07:12:33.886Z,23.90
2023-02-11T07:15:01.493Z,27.95
2023-02-11T07:17:28.763Z,27.77
2023-02-11T07:19:56.010Z,29.35
2023-02-11T07:22:23.262Z,31.90
2023-02-11T07:24:50.492Z,29.20
2023-02-11T07:27:17.810Z,28.08
2023-02-11T07:29:46.937Z,33.17
2023-02-11T07:32:14.846Z,30.42
2023-02-11T07:34:42.225Z,29.30
2023-02-11T07:37:09.552Z,27.35
2023-02-11T07:39:36.778Z,33.83
2023-02-11T07:42:04.732Z,31.52
2023-02-11T07:44:33.283Z,32.65
2023-02-11T07:47:00.801Z,30.48
2023-02-11T07:49:28.178Z,30.42
2023-02-11T07:51:55.644Z,28.85
2023-02-11T07:54:22.883Z,30.95
2023-02-11T07:56:50.197Z,30.70
2023-02-11T07:59:17.544Z,26.63
2023-02-11T08:01:45.529Z,29.60
2023-02-11T08:04:12.878Z,33.20
2023-02-11T08:06:42.303Z,29.15
2023-02-11T08:09:11.414Z,26.08
2023-02-11T08:11:38.654Z,33.15
2023-02-11T08:14:05.937Z,30.00
2023-02-11T08:16:34.932Z,31.38
2023-02-11T08:19:03.358Z,31.02
2023-02-11T08:21:30.963Z,30.08
2023-02-11T08:23:58.269Z,27.50
2023-02-11T08:26:26.901Z,26.52
2023-02-11T08:28:54.949Z,27.35
2023-02-11T08:31:24.110Z,33.35
2023-02-11T08:33:51.868Z,28.75
2023-02-11T08:36:20.610Z,28.17
2023-02-11T08:38:47.980Z,28.80
2023-02-11T08:41:15.522Z,28.65
2023-02-11T08:43:45.716Z,30.73
2023-02-11T08:46:14.971Z,34.05
2023-02-11T08:48:42.270Z,36.22
2023-02-11T08:51:10.275Z,31.38
2023-02-11T08:53:37.909Z,31.30
2023-02-11T08:56:05.497Z,27.55
2023-02-11T08:58:32.976Z,32.72
2023-02-11T09:01:00.313Z,29.85
2023-02-11T09:03:27.664Z,28.45
2023-02-11T09:05:55.034Z,31.20
2023-02-11T09:08:22.349Z,30.67
2023-02-11T09:10:50.055Z,29.75
2023-02-11T09:13:17.675Z,30.08
2023-02-11T09:15:47.757Z,27.65
2023-02-11T09:18:15.433Z,28.48
2023-02-11T09:20:42.787Z,31.08
2023-02-11T09:23:10.755Z,34.17
2023-02-11T09:25:40.704Z,29.00
2023-02-11T09:28:09.080Z,25.77
2023-02-11T09:30:39.640Z,28.85
2023-02-11T09:33:06.971Z,29.90
2023-02-11T09:35:34.792Z,28.70
2023-02-11T09:38:02.083Z,27.88
2023-02-11T09:40:29.375Z,29.48
2023-02-11T09:43:09.090Z,27.88
2023-02-11T09:45:36.514Z,25.92
2023-02-11T09:48:06.595Z,27.65
2023-02-11T09:50:39.715Z,25.92
2023-02-11T09:53:20.700Z,23.15
2023-02-11T09:55:50.731Z,27.70
2023-02-11T09:58:21.522Z,24.45
2023-02-11T10:01:05.757Z,27.38
2023-02-11T10:03:53.313Z,24.23
2023-02-11T10:06:26.577Z,28.33
2023-02-11T10:08:59.883Z,26.75
2023-02-11T10:11:31.977Z,30.13
2023-02-11T10:14:12.181Z,26.42
2023-02-11T10:16:39.429Z,27.00
2023-02-11T10:19:13.954Z,26.27
2023-02-11T10:22:00.027Z,27.02
2023-02-11T10:24:29.077Z,24.77
2023-02-11T10:26:56.419Z,27.85
2023-02-11T10:29:49.750Z,27.35
2023-02-11T10:32:25.757Z,22.67
2023-02-11T10:37:20.311Z,22.77
2023-02-11T10:39:48.142Z,25.13
2023-02-11T10:42:15.384Z,26.45
2023-02-11T10:44:47.533Z,22.63
2023-02-11T10:47:24.980Z,23.92
2023-02-11T10:49:52.317Z,25.20
2023-02-11T10:52:24.060Z,22.75
2023-02-11T10:55:14.670Z,24.52
2023-02-11T10:57:51.484Z,22.50
2023-02-11T11:00:18.833Z,20.60
2023-02-11T11:02:46.819Z,22.02
2023-02-11T11:05:52.748Z,21.20
2023-02-11T11:08:20.478Z,22.48
2023-02-11T11:10:50.330Z,21.65
2023-02-11T11:13:23.719Z,19.17
2023-02-11T11:16:07.609Z,21.23
2023-02-11T11:18:34.936Z,20.20
2023-02-11T11:21:03.454Z,21.58
2023-02-11T11:23:31.277Z,21.95
2023-02-11T11:26:01.528Z,21.92
2023-02-11T11:28:29.950Z,20.45
2023-02-11T11:30:58.723Z,19.05
2023-02-11T11:33:28.322Z,20.70
2023-02-11T11:38:22.907Z,20.00
2023-02-11T11:41:10.069Z,18.00
2023-02-11T11:43:37.713Z,18.20
2023-02-11T11:46:07.151Z,17.52
2023-02-11T11:48:39.605Z,18.35
2023-02-11T11:51:10.731Z,16.80
2023-02-11T11:53:40.975Z,18.77
2023-02-11T11:56:08.235Z,16.48
2023-02-11T11:58:35.831Z,17.85
2023-02-11T12:01:18.027Z,15.80
2023-02-11T12:04:11.365Z,16.88
2023-02-11T12:06:39.106Z,17.13
2023-02-11T12:09:15.489Z,16.15
2023-02-11T12:12:01.325Z,15.95
2023-02-11T12:14:35.165Z,16.92
2023-02-11T12:17:06.799Z,20.13
2023-02-11T12:19:39.688Z,16.10
2023-02-11T12:22:19.983Z,16.25
2023-02-11T12:25:02.630Z,18.13
2023-02-11T12:27:42.157Z,18.40
2023-02-11T12:30:38.043Z,14.98
2023-02-11T12:33:08.461Z,14.75
2023-02-11T12:35:51.696Z,15.95
2023-02-11T12:38:21.833Z,14.95
2023-02-11T12:41:05.557Z,15.10
2023-02-11T12:43:37.937Z,14.20
2023-02-11T12:46:12.671Z,12.95
2023-02-11T12:48:58.526Z,16.40
2023-02-11T12:51:25.721Z,13.48
2023-02-11T12:54:11.404Z,14.52
2023-02-11T12:56:42.134Z,13.93
2023-02-11T12:59:15.346Z,11.52
2023-02-11T13:01:44.164Z,13.52
2023-02-11T13:04:18.662Z,12.45
2023-02-11T13:06:48.260Z,13.68
2023-02-11T13:09:25.848Z,13.32
2023-02-11T13:11:56.039Z,14.35
2023-02-11T13:14:32.658Z,13.88
2023-02-11T13:17:00.422Z,13.27
2023-02-11T13:19:42.650Z,15.82
2023-02-11T13:22:19.122Z,13.68
2023-02-11T13:24:56.700Z,11.40
2023-02-11T13:27:33.746Z,13.07
2023-02-11T13:30:21.657Z,14.05
2023-02-11T13:32:55.566Z,13.20
2023-02-11T13:35:45.819Z,12.82
2023-02-11T13:38:21.644Z,14.43
2023-02-11T13:41:08.688Z,12.45
2023-02-11T13:43:37.117Z,13.98
2023-02-11T13:46:13.366Z,13.52
2023-02-11T13:48:46.840Z,12.90
2023-02-11T13:51:16.047Z,13.65
2023-02-11T13:53:51.294Z,12.73
2023-02-11T13:56:28.383Z,13.93
2023-02-11T13:58:55.646Z,15.10
2023-02-11T14:01:43.570Z,14.60
2023-02-11T14:04:39.505Z,12.75
2023-02-11T14:07:44.260Z,13.80
2023-02-11T14:10:30.289Z,15.20
2023-02-11T14:13:07.203Z,13.50
2023-02-11T14:15:41.012Z,13.90
2023-02-11T14:18:31.587Z,17.02
2023-02-11T14:21:14.260Z,11.55
2023-02-11T14:23:41.779Z,12.88
2023-02-11T14:26:12.061Z,12.00
2023-02-11T14:28:41.722Z,14.88
2023-02-11T14:31:11.141Z,13.13
2023-02-11T14:36:34.809Z,13.75
2023-02-11T14:39:07.791Z,12.80
2023-02-11T14:41:42.676Z,13.85
2023-02-11T14:44:20.158Z,17.20
2023-02-11T14:46:48.725Z,14.82
2023-02-11T14:49:37.210Z,12.35
2023-02-11T14:52:17.093Z,14.77
2023-02-11T14:54:45.506Z,12.93
2023-02-11T14:57:15.029Z,14.73
2023-02-11T14:59:59.372Z,16.13
2023-02-11T15:02:30.435Z,12.48
2023-02-11T15:05:16.074Z,13.02
2023-02-11T15:07:54.212Z,14.82
2023-02-11T15:10:30.382Z,14.77
2023-02-11T15:13:00.938Z,11.70
2023-02-11T15:15:28.828Z,12.00
2023-02-11T15:17:58.907Z,13.60
2023-02-11T15:20:28.322Z,15.38
2023-02-11T15:23:00.122Z,15.65
2023-02-11T15:25:28.902Z,12.82
2023-02-11T15:27:57.935Z,10.80
2023-02-11T15:30:26.922Z,11.20
2023-02-11T15:32:59.916Z,15.55
2023-02-11T15:35:32.404Z,15.68
2023-02-11T15:38:00.578Z,11.43
2023-02-11T15:40:33.023Z,13.75
2023-02-11T15:43:04.919Z,10.98
2023-02-11T15:45:32.254Z,12.52
2023-02-11T15:48:20.434Z,13.35
2023-02-11T15:51:01.437Z,11.85
2023-02-11T15:53:28.895Z,14.23
2023-02-11T15:56:05.759Z,12.63
2023-02-11T15:58:37.760Z,12.85
2023-02-11T16:01:05.324Z,12.82
2023-02-11T16:03:33.069Z,12.65
2023-02-11T16:06:17.171Z,11.32
2023-02-11T16:08:56.575Z,11.57
2023-02-11T16:11:34.116Z,14.38
2023-02-11T16:14:01.827Z,12.68
2023-02-11T16:16:34.481Z,12.15
2023-02-11T16:19:05.393Z,13.20
2023-02-11T16:21:36.133Z,13.90
2023-02-11T16:24:04.659Z,11.15
2023-02-11T16:26:33.982Z,15.43
2023-02-11T16:29:17.799Z,10.88
2023-02-11T16:31:46.703Z,10.93
2023-02-11T16:34:14.752Z,10.95
2023-02-11T16:36:42.160Z,10.82
2023-02-11T16:39:09.859Z,12.68
2023-02-11T16:41:37.177Z,12.23
2023-02-11T16:44:04.536Z,13.15
2023-02-11T16:46:32.622Z,13.07
2023-02-11T16:49:10.339Z,13.10
2023-02-11T16:51:41.869Z,12.82
2023-02-11T16:54:16.447Z,14.30
2023-02-11T16:56:44.093Z,11.45
2023-02-11T16:59:11.661Z,9.85
2023-02-11T17:01:39.677Z,10.98
2023-02-11T17:04:07.207Z,12.13
2023-02-11T17:06:35.248Z,11.75
2023-02-11T17:09:02.919Z,11.70
2023-02-11T17:11:30.170Z,11.75
2023-02-11T17:13:57.462Z,12.63
2023-02-11T17:16:25.099Z,10.75
2023-02-11T17:18:52.466Z,11.65
2023-02-11T17:21:19.738Z,12.30
2023-02-11T17:23:47.012Z,11.55
2023-02-11T17:26:14.225Z,12.43
2023-02-11T17:28:41.441Z,12.13
2023-02-11T17:31:09.616Z,11.60
2023-02-11T17:33:37.921Z,13.68
2023-02-11T17:36:06.596Z,12.60
2023-02-11T17:38:34.408Z,11.60
2023-02-11T17:41:02.674Z,11.85
2023-02-11T17:43:30.006Z,12.13
2023-02-11T17:45:57.551Z,11.43
2023-02-11T17:48:25.104Z,12.68
2023-02-11T17:50:52.353Z,13.02
2023-02-11T17:53:19.695Z,10.57
2023-02-11T17:55:46.930Z,11.50
2023-02-11T17:58:14.232Z,14.88
2023-02-11T18:00:41.642Z,13.63
2023-02-11T18:03:08.955Z,14.93
2023-02-11T18:05:37.080Z,16.23
2023-02-11T18:08:05.650Z,12.80
2023-02-11T18:10:33.542Z,12.85
2023-02-11T18:13:01.636Z,16.48
2023-02-11T18:15:28.957Z,12.23
2023-02-11T18:17:56.776Z,14.60
2023-02-11T18:20:24.140Z,11.65
2023-02-11T18:22:51.457Z,15.52
2023-02-11T18:25:18.819Z,13.25
2023-02-11T18:27:46.476Z,14.68
2023-02-11T18:30:20.241Z,12.95
2023-02-11T18:32:47.471Z,15.25
2023-02-11T18:35:15.812Z,13.27
2023-02-11T18:37:43.532Z,14.02
2023-02-11T18:40:11.494Z,13.15
2023-02-11T18:42:38.869Z,14.00
2023-02-11T18:45:09.651Z,15.68
2023-02-11T18:47:37.895Z,14.73
2023-02-11T18:50:05.887Z,15.68
2023-02-11T18:52:34.103Z,13.63
2023-02-11T18:55:01.353Z,13.48
2023-02-11T18:57:28.640Z,13.85
2023-02-11T18:59:56.022Z,15.45
2023-02-11T19:02:24.849Z,14.55
2023-02-11T19:04:52.288Z,14.55
2023-02-11T19:07:19.559Z,14.10
2023-02-11T19:09:46.884Z,13.40
2023-02-11T19:12:14.471Z,16.75
2023-02-11T19:14:42.872Z,12.80
2023-02-11T19:17:12.446Z,13.60
2023-02-11T19:19:41.067Z,13.02
2023-02-11T19:22:10.646Z,12.65
2023-02-11T19:24:38.391Z,11.45
2023-02-11T19:27:06.133Z,18.30
2023-02-11T19:29:35.119Z,15.25
2023-02-11T19:32:03.856Z,13.70
2023-02-11T19:34:31.234Z,16.60
2023-02-11T19:37:01.648Z,14.45
2023-02-11T19:39:29.110Z,15.77
2023-02-11T19:41:56.377Z,16.88
2023-02-11T19:44:23.722Z,13.90
2023-02-11T19:46:53.259Z,14.45
2023-02-11T19:51:52.102Z,14.07
2023-02-11T19:54:20.284Z,16.48
2023-02-11T19:56:48.709Z,15.75
2023-02-11T19:59:16.450Z,14.05
2023-02-11T20:01:47.635Z,14.75
2023-02-11T20:04:15.129Z,14.43
2023-02-11T20:06:42.655Z,13.82
2023-02-11T20:09:12.554Z,14.27
2023-02-11T20:11:40.293Z,14.35
2023-02-11T20:14:08.438Z,16.33
2023-02-11T20:16:47.390Z,14.85
2023-02-11T20:19:17.964Z,15.88
2023-02-11T20:21:47.062Z,15.38
2023-02-11T20:24:15.190Z,18.52
2023-02-11T20:26:42.761Z,20.73
2023-02-11T20:29:10.095Z,16.75
2023-02-11T20:31:37.552Z,18.00
2023-02-11T20:34:05.076Z,21.90
2023-02-11T20:36:35.530Z,23.13
2023-02-11T20:39:04.815Z,19.88
2023-02-11T20:41:36.432Z,24.00
2023-02-11T20:44:05.535Z,18.75
2023-02-11T20:46:33.334Z,18.63
2023-02-11T20:49:01.071Z,17.70
2023-02-11T20:51:29.796Z,20.40
2023-02-11T20:53:57.038Z,18.45
2023-02-11T20:56:25.593Z,18.35
2023-02-11T20:58:53.480Z,17.20
2023-02-11T21:01:22.544Z,17.85
2023-02-11T21:03:50.920Z,18.08
2023-02-11T21:06:18.617Z,19.38
2023-02-11T21:08:46.064Z,18.15
2023-02-11T21:11:13.357Z,16.85
2023-02-11T21:13:41.578Z,16.58
2023-02-11T21:16:09.485Z,14.18
2023-02-11T21:18:36.770Z,16.73
2023-02-11T21:21:06.854Z,16.48
2023-02-11T21:23:34.661Z,17.83
2023-02-11T21:26:01.898Z,21.35
2023-02-11T21:28:31.297Z,17.70
2023-02-11T21:33:27.806Z,18.90
2023-02-11T21:35:56.067Z,16.13
2023-02-11T21:38:23.956Z,17.25
2023-02-11T21:40:51.350Z,17.27
2023-02-11T21:43:18.848Z,16.10
2023-02-11T21:45:46.875Z,21.98
2023-02-11T21:48:14.726Z,20.17
2023-02-11T21:50:42.779Z,19.23
2023-02-11T21:53:10.246Z,20.10
2023-02-11T21:55:38.185Z,20.83
2023-02-11T21:58:05.856Z,20.05
2023-02-11T22:00:33.915Z,19.42
2023-02-11T22:03:01.421Z,18.67
2023-02-11T22:05:28.766Z,21.17
2023-02-11T22:07:56.315Z,20.75
2023-02-11T22:10:23.684Z,17.75
2023-02-11T22:12:50.912Z,19.92
2023-02-11T22:15:18.237Z,17.60
2023-02-11T22:17:45.457Z,16.60
2023-02-11T22:20:12.867Z,17.85
2023-02-11T22:22:40.108Z,15.20
2023-02-11T22:25:07.604Z,16.65
2023-02-11T22:27:34.845Z,14.45
2023-02-11T22:30:02.624Z,17.80
2023-02-11T22:32:29.845Z,17.35
2023-02-11T22:34:57.375Z,16.60
2023-02-11T22:37:24.682Z,14.63
2023-02-11T22:39:51.922Z,17.70
2023-02-11T22:42:19.203Z,17.52
2023-02-11T22:44:46.504Z,16.67
2023-02-11T22:47:13.707Z,16.17
2023-02-11T22:49:41.351Z,17.13
2023-02-11T22:52:08.608Z,17.00
2023-02-11T22:54:36.282Z,16.23
2023-02-11T22:57:03.606Z,18.13
2023-02-11T22:59:30.859Z,17.58
2023-02-11T23:01:58.175Z,15.82
2023-02-11T23:04:28.398Z,15.20
2023-02-11T23:06:55.695Z,18.83
2023-02-11T23:09:22.950Z,17.98
2023-02-11T23:11:54.269Z,17.02
2023-02-11T23:14:21.539Z,16.05
2023-02-11T23:16:51.378Z,18.10
2023-02-11T23:19:19.871Z,18.95
2023-02-11T23:21:49.201Z,20.48
2023-02-11T23:24:16.411Z,16.50
2023-02-11T23:26:44.397Z,17.20
2023-02-11T23:29:12.341Z,19.73
2023-02-11T23:31:40.682Z,20.98
2023-02-11T23:34:08.707Z,20.05
2023-02-11T23:36:36.287Z,18.95
2023-02-11T23:39:03.955Z,21.85
2023-02-11T23:41:31.176Z,21.70
2023-02-11T23:43:58.816Z,20.08
2023-02-11T23:46:27.077Z,20.27
2023-02-11T23:48:54.406Z,20.52
2023-02-11T23:51:21.695Z,18.48
2023-02-11T23:53:49.684Z,18.63
2023-02-11T23:56:21.254Z,19.20
2023-02-11T23:58:49.536Z,19.15
